Ontario, Oregon
Current Conditions -  °F | °C
As of 4:53 PM on Friday 24 Oct 2014 (Local Time) from KONO Reporting Station
Clear Clear  
Wind Chill: 16°   Ceiling: Unl
Heat Index: 16°   Visibility: 10mi
Dew Point: 10°   Wind: 3mph
Humidity: 67%   Direction: 300°WNW
Pressure: 30.01"   Gusts: NA
Location:  44.03°N, 116.96°W
Report Text: KONO 242253Z AUTO 30003KT 10SM CLR 16/10 A3001 RMK AO2 SLP163 T01610100
Loading
Personal Weather Stations






























Interactive Weather Map
Tropical Storm Tracking
New forecast layout! Learn more

10-Day Weather Forecast

Advertisements
Track Severe Weather on mobile